Terminal Aerodrome Forecast
Issued by NWS

Home | Current Version | Previous Version | Text Only | Print | Product List | Glossary On
Versions: 1 2 3 4 5 6 7 8 9 10 11 12 13 14 15 16 17 18 19 20 21 22 23 24 25 26 27 28 29 30 31 32 33 34 35 36
000
FTAK31 PAFA 061138
TAFAUN
TAF
PAUN 061138Z 0612/0712 11009KT 5SM -SHRA FU BR BKN012 OVC110
     FM061300 10012KT 4SM -SHRA FU BR SCT014 BKN100
     FM070200 09008KT 6SM -RA FU BR SCT020 BKN035 OVC050
     FM071100 19010KT P6SM -SHRA FEW020 SCT035 OVC050=

USA.gov is the U.S. government's official web portal to all federal, state and local government web resources and services.